Map

Track Data

SID SEASON NUMBER BASIN SUBBASIN NAME ISO_TIME NATURE LAT LON WMO_WIND WMO_PRES WMO_AGENCY TRACK_TYPE DIST2LAND LANDFALL IFLAG USA_AGENCY USA_ATCF_ID USA_LAT USA_LON USA_RECORD USA_STATUS USA_WIND USA_PRES USA_SSHS USA_R34_NE USA_R34_SE USA_R34_SW USA_R34_NW USA_R50_NE USA_R50_SE USA_R50_SW USA_R50_NW USA_R64_NE USA_R64_SE USA_R64_SW USA_R64_NW USA_POCI USA_ROCI USA_RMW USA_EYE TOKYO_LAT TOKYO_LON TOKYO_GRADE TOKYO_WIND TOKYO_PRES TOKYO_R50_DIR TOKYO_R50_LONG TOKYO_R50_SHORT TOKYO_R30_DIR TOKYO_R30_LONG TOKYO_R30_SHORT TOKYO_LAND CMA_LAT CMA_LON CMA_CAT CMA_WIND CMA_PRES HKO_LAT HKO_LON HKO_CAT HKO_WIND HKO_PRES NEWDELHI_LAT NEWDELHI_LON NEWDELHI_GRADE NEWDELHI_WIND NEWDELHI_PRES NEWDELHI_CI NEWDELHI_DP NEWDELHI_POCI REUNION_LAT REUNION_LON REUNION_TYPE REUNION_WIND REUNION_PRES REUNION_TNUM REUNION_CI REUNION_RMW REUNION_R34_NE REUNION_R34_SE REUNION_R34_SW REUNION_R34_NW REUNION_R50_NE REUNION_R50_SE REUNION_R50_SW REUNION_R50_NW REUNION_R64_NE REUNION_R64_SE REUNION_R64_SW REUNION_R64_NW BOM_LAT BOM_LON BOM_TYPE BOM_WIND BOM_PRES BOM_TNUM BOM_CI BOM_RMW BOM_R34_NE BOM_R34_SE BOM_R34_SW BOM_R34_NW BOM_R50_NE BOM_R50_SE BOM_R50_SW BOM_R50_NW BOM_R64_NE BOM_R64_SE BOM_R64_SW BOM_R64_NW BOM_ROCI BOM_POCI BOM_EYE BOM_POS_METHOD BOM_PRES_METHOD NADI_LAT NADI_LON NADI_CAT NADI_WIND NADI_PRES WELLINGTON_LAT WELLINGTON_LON WELLINGTON_WIND WELLINGTON_PRES DS824_LAT DS824_LON DS824_STAGE DS824_WIND DS824_PRES TD9636_LAT TD9636_LON TD9636_STAGE TD9636_WIND TD9636_PRES TD9635_LAT TD9635_LON TD9635_WIND TD9635_PRES TD9635_ROCI NEUMANN_LAT NEUMANN_LON NEUMANN_CLASS NEUMANN_WIND NEUMANN_PRES MLC_LAT MLC_LON MLC_CLASS MLC_WIND MLC_PRES USA_GUST BOM_GUST BOM_GUST_PER REUNION_GUST REUNION_GUST_PER USA_SEAHGT USA_SEARAD_NE USA_SEARAD_SE USA_SEARAD_SW USA_SEARAD_NW STORM_SPEED STORM_DIR
2014019S26165 2014 7 SP MM JUNE 2014-01-19 00:00:00 NR -26.1000 165.100 40 990 wellington main 444 444 ________O_____ -1 -26.1000 165.100 40 990 12 154
2014019S26165 2014 7 SP MM JUNE 2014-01-19 03:00:00 NR -26.6480 165.401 main 487 487 ________P_____ -1 -26.6480 165.401 40 990 13 160
2014019S26165 2014 7 SP MM JUNE 2014-01-19 06:00:00 NR -27.3000 165.600 40 990 wellington main 558 558 ________O_____ -1 -27.3000 165.600 40 990 15 171
2014019S26165 2014 7 SP MM JUNE 2014-01-19 09:00:00 NR -28.1317 165.671 main 644 644 ________P_____ -1 -28.1317 165.671 40 991 18 172
2014019S26165 2014 7 SP MM JUNE 2014-01-19 12:00:00 NR -29.1000 165.900 40 992 wellington main 752 746 ________O_____ -1 -29.1000 165.900 40 992 22 157
2014019S26165 2014 7 SP MM JUNE 2014-01-19 15:00:00 NR -30.1741 166.651 main 731 608 ________P_____ -1 -30.1741 166.651 40 990 25 147
2014019S26165 2014 7 SP MM JUNE 2014-01-19 18:00:00 NR -31.2000 167.500 40 989 wellington main 601 517 ________O_____ -1 -31.2000 167.500 40 989 22 149
2014019S26165 2014 7 SP MM JUNE 2014-01-19 21:00:00 NR -32.0235 167.961 main 509 436 ________P_____ -1 -32.0235 167.961 40 989 17 153
2014019S26165 2014 7 SP MM JUNE 2014-01-20 00:00:00 NR -32.7000 168.400 40 989 wellington main 436 357 ________O_____ -1 -32.7000 168.400 40 989 16 143
2014019S26165 2014 7 SP MM JUNE 2014-01-20 03:00:00 NR -33.2948 169.083 main 348 259 ________P_____ -1 -33.2948 169.083 40 988 17 131
2014019S26165 2014 7 SP MM JUNE 2014-01-20 06:00:00 NR -33.8000 169.900 40 987 wellington main 259 177 ________O_____ -1 -33.8000 169.900 40 987 17 125
2014019S26165 2014 7 SP MM JUNE 2014-01-20 09:00:00 NR -34.2564 170.742 main 175 92 ________P_____ -1 -34.2564 170.742 40 987 17 121
2014019S26165 2014 7 SP MM JUNE 2014-01-20 12:00:00 NR -34.7000 171.700 40 988 wellington main 85 42 ________O_____ -1 -34.7000 171.700 40 988 19 119
2014019S26165 2014 7 SP MM JUNE 2014-01-20 15:00:00 NR -35.1763 172.777 main 36 0 ________P_____ -1 -35.1763 172.777 40 988 21 118
2014019S26165 2014 7 SP MM JUNE 2014-01-20 18:00:00 NR -35.7000 174.000 40 988 wellington main 0 0 ________O_____ -1 -35.7000 174.000 40 988 24 118
2014019S26165 2014 7 SP MM JUNE 2014-01-20 21:00:00 NR -36.2856 175.392 main 34 22 ________P_____ -1 -36.2856 175.392 37 989 26 118
2014019S26165 2014 7 SP MM JUNE 2014-01-21 00:00:00 NR -36.9000 176.800 35 990 wellington main 86 22 ________O_____ -1 -36.9000 176.800 35 990 25 118
2014019S26165 2014 7 SP MM JUNE 2014-01-21 03:00:00 NR -37.4247 178.108 main 22 0 ________P_____ -1 -37.4247 178.108 35 989 22 122
2014019S26165 2014 7 SP MM JUNE 2014-01-21 06:00:00 NR -38.1000 179.200 35 989 wellington main 68 68 ________O_____ -1 -38.1000 179.200 35 989 21 143
2014019S26165 2014 7 SP MM JUNE 2014-01-21 09:00:00 NR -39.1001 179.737 main 138 138 ________P_____ -1 -39.1001 179.737 35 991 25 154
2014019S26165 2014 7 SP MM JUNE 2014-01-21 12:00:00 NR -40.3000 180.600 35 993 wellington main 255 255 ________O_____ -1 -40.3000 -179.400 35 993 33 138
2014019S26165 2014 7 SP MM JUNE 2014-01-21 15:00:00 NR -41.5270 182.603 main 466 466 ________P_____ -1 -41.5270 -177.397 35 994 43 124
2014019S26165 2014 7 SP MM JUNE 2014-01-21 18:00:00 NR -42.7000 185.400 35 995 wellington main 732 ________O_____ -1 -42.7000 -174.600 35 995 47 120

Digital Typhoon Data and Search

About IBTrACS Database

This database is a web-friendly format of International Best Track Archive for Climate Stewardship (IBTrACS), a global best track data archive curated by NOAA dating back to 1842.

Updated: 2021-12-01